Terminal Aerodrome Forecast
Issued by NWS Charleston, WV

Current Version | Previous Version | Graphics & Text | Print | Product List | Glossary On
Versions: 1 2 3 4 5 6 7 8 9 10 11 12 13 14 15 16 17 18 19 20 21 22 23 24 25 26 27 28 29 30 31
000
FTUS41 KRLX 221500 AAD
TAFBKW
TAF AMD
KBKW 221556Z 2216/2312 33010KT 3SM -RA BR OVC003
     FM221700 32008KT 4SM BR OVC005
     FM221800 32009KT P6SM OVC008
     FM222000 32009KT P6SM OVC015
     FM230300 32008KT P6SM BKN010
     FM230700 32008KT P6SM BKN015=

USA.gov is the U.S. government's official web portal to all federal, state and local government web resources and services.